createdAt,value
2023-06-26T00:02:01.043Z,5.53
2023-06-26T00:04:28.041Z,6.38
2023-06-26T00:06:55.214Z,6.45
2023-06-26T00:09:22.294Z,6.38
2023-06-26T00:11:49.376Z,5.80
2023-06-26T00:14:16.520Z,5.82
2023-06-26T00:16:43.858Z,6.18
2023-06-26T00:19:10.915Z,6.43
2023-06-26T00:21:37.932Z,6.53
2023-06-26T00:24:05.364Z,6.40
2023-06-26T00:26:32.364Z,6.97
2023-06-26T00:28:59.423Z,6.65
2023-06-26T00:31:26.454Z,6.70
2023-06-26T00:33:53.511Z,7.07
2023-06-26T00:36:20.531Z,6.85
2023-06-26T00:38:47.551Z,6.07
2023-06-26T00:41:14.664Z,6.80
2023-06-26T00:43:42.082Z,6.43
2023-06-26T00:46:14.554Z,6.18
2023-06-26T00:48:46.073Z,7.47
2023-06-26T00:51:13.937Z,5.97
2023-06-26T00:53:41.433Z,6.63
2023-06-26T00:56:09.300Z,6.63
2023-06-26T00:58:36.410Z,5.97
2023-06-26T01:01:03.865Z,6.00
2023-06-26T01:03:30.935Z,6.50
2023-06-26T01:06:00.112Z,6.30
2023-06-26T01:08:27.874Z,6.70
2023-06-26T01:10:55.056Z,7.15
2023-06-26T01:13:22.606Z,6.90
2023-06-26T01:15:50.162Z,6.75
2023-06-26T01:18:17.968Z,7.13
2023-06-26T01:20:46.037Z,6.43
2023-06-26T01:23:21.719Z,6.70
2023-06-26T01:26:08.679Z,6.70
2023-06-26T01:28:45.359Z,7.07
2023-06-26T01:31:13.745Z,7.00
2023-06-26T01:33:42.431Z,7.32
2023-06-26T01:36:09.708Z,6.85
2023-06-26T01:38:36.809Z,6.35
2023-06-26T01:41:05.131Z,6.90
2023-06-26T01:43:57.108Z,6.32
2023-06-26T01:46:29.093Z,7.07
2023-06-26T01:49:03.059Z,7.13
2023-06-26T01:51:35.596Z,6.70
2023-06-26T01:54:03.659Z,6.78
2023-06-26T01:56:31.355Z,6.15
2023-06-26T01:58:58.975Z,7.97
2023-06-26T02:01:26.060Z,7.03
2023-06-26T02:03:53.770Z,7.13
2023-06-26T02:06:20.890Z,6.80
2023-06-26T02:08:47.945Z,6.35
2023-06-26T02:11:14.976Z,7.05
2023-06-26T02:13:42.188Z,6.93
2023-06-26T02:16:09.218Z,7.25
2023-06-26T02:18:36.241Z,7.40
2023-06-26T02:21:05.490Z,6.90
2023-06-26T02:23:32.689Z,7.55
2023-06-26T02:26:00.355Z,6.82
2023-06-26T02:28:27.388Z,7.45
2023-06-26T02:30:54.481Z,7.35
2023-06-26T02:33:21.550Z,7.03
2023-06-26T02:35:48.549Z,7.55
2023-06-26T02:38:15.584Z,7.38
2023-06-26T02:40:42.579Z,8.60
2023-06-26T02:43:09.652Z,7.05
2023-06-26T02:45:36.643Z,7.05
2023-06-26T02:48:04.118Z,6.65
2023-06-26T02:50:31.207Z,7.05
2023-06-26T02:52:58.336Z,7.07
2023-06-26T02:55:25.397Z,7.18
2023-06-26T02:57:52.462Z,6.32
2023-06-26T03:00:19.926Z,7.00
2023-06-26T03:02:47.034Z,7.07
2023-06-26T03:05:14.490Z,7.07
2023-06-26T03:07:41.461Z,8.05
2023-06-26T03:10:08.979Z,7.32
2023-06-26T03:12:35.947Z,7.47
2023-06-26T03:15:02.995Z,6.63
2023-06-26T03:17:30.323Z,6.45
2023-06-26T03:19:57.350Z,7.60
2023-06-26T03:22:24.294Z,7.25
2023-06-26T03:24:51.405Z,7.82
2023-06-26T03:27:19.546Z,8.07
2023-06-26T03:29:46.822Z,7.82
2023-06-26T03:32:13.795Z,7.93
2023-06-26T03:34:40.788Z,8.20
2023-06-26T03:37:07.792Z,7.38
2023-06-26T03:39:34.895Z,7.22
2023-06-26T03:42:02.398Z,7.35
2023-06-26T03:44:29.778Z,7.55
2023-06-26T03:46:56.947Z,7.03
2023-06-26T03:49:24.110Z,7.65
2023-06-26T03:51:51.126Z,7.68
2023-06-26T03:54:18.257Z,7.10
2023-06-26T03:56:45.351Z,7.45
2023-06-26T03:59:12.520Z,7.30
2023-06-26T04:01:39.964Z,7.25
2023-06-26T04:04:07.150Z,13.60
2023-06-26T04:06:34.551Z,8.18
2023-06-26T04:09:01.576Z,10.05
2023-06-26T04:11:28.735Z,7.10
2023-06-26T04:13:55.721Z,9.57
2023-06-26T04:16:26.291Z,9.10
2023-06-26T04:18:54.445Z,11.77
2023-06-26T04:21:21.610Z,8.38
2023-06-26T04:23:49.088Z,8.15
2023-06-26T04:26:16.384Z,9.00
2023-06-26T04:28:43.855Z,8.88
2023-06-26T04:31:11.281Z,8.50
2023-06-26T04:33:40.931Z,8.68
2023-06-26T04:36:09.903Z,8.13
2023-06-26T04:38:37.039Z,8.20
2023-06-26T04:41:04.370Z,7.85
2023-06-26T04:43:31.509Z,8.38
2023-06-26T04:45:58.588Z,8.07
2023-06-26T04:48:25.701Z,7.90
2023-06-26T04:50:55.430Z,8.05
2023-06-26T04:53:24.210Z,7.97
2023-06-26T04:55:54.915Z,8.05
2023-06-26T04:58:22.069Z,8.68
2023-06-26T05:00:49.738Z,8.50
2023-06-26T05:03:18.880Z,9.05
2023-06-26T05:05:46.894Z,10.57
2023-06-26T05:08:24.826Z,9.65
2023-06-26T05:10:51.933Z,9.10
2023-06-26T05:13:20.584Z,7.55
2023-06-26T05:15:48.089Z,7.82
2023-06-26T05:18:15.303Z,7.32
2023-06-26T05:20:42.729Z,7.75
2023-06-26T05:23:11.866Z,8.95
2023-06-26T05:25:39.232Z,6.78
2023-06-26T05:28:06.812Z,7.13
2023-06-26T05:30:36.763Z,7.22
2023-06-26T05:33:05.146Z,11.15
2023-06-26T05:35:32.738Z,10.43
2023-06-26T05:38:00.532Z,7.53
2023-06-26T05:40:27.784Z,7.20
2023-06-26T05:42:55.093Z,6.97
2023-06-26T05:45:22.212Z,7.10
2023-06-26T05:47:51.527Z,7.15
2023-06-26T05:50:20.825Z,6.95
2023-06-26T05:52:48.222Z,7.70
2023-06-26T05:55:15.859Z,7.53
2023-06-26T05:57:43.549Z,7.00
2023-06-26T06:00:13.910Z,6.15
2023-06-26T06:02:42.806Z,6.80
2023-06-26T06:05:10.202Z,6.60
2023-06-26T06:07:38.280Z,7.65
2023-06-26T06:10:05.860Z,7.30
2023-06-26T06:12:33.135Z,7.35
2023-06-26T06:15:00.241Z,7.38
2023-06-26T06:17:27.600Z,7.22
2023-06-26T06:19:54.604Z,7.82
2023-06-26T06:22:21.911Z,9.68
2023-06-26T06:24:52.054Z,6.60
2023-06-26T06:27:19.408Z,7.22
2023-06-26T06:29:46.543Z,6.13
2023-06-26T06:32:13.830Z,6.93
2023-06-26T06:34:41.033Z,6.32
2023-06-26T06:37:08.367Z,6.50
2023-06-26T06:39:35.437Z,6.25
2023-06-26T06:42:02.431Z,6.18
2023-06-26T06:44:31.801Z,5.90
2023-06-26T06:46:58.994Z,6.05
2023-06-26T06:49:26.278Z,6.43
2023-06-26T06:51:53.575Z,5.90
2023-06-26T06:54:20.933Z,5.65
2023-06-26T06:56:48.041Z,5.55
2023-06-26T06:59:15.029Z,6.30
2023-06-26T07:01:42.220Z,6.25
2023-06-26T07:04:09.507Z,5.90
2023-06-26T07:06:36.619Z,6.60
2023-06-26T07:09:04.131Z,6.22
2023-06-26T07:11:31.100Z,6.32
2023-06-26T07:13:58.721Z,5.80
2023-06-26T07:16:25.789Z,6.68
2023-06-26T07:18:53.319Z,5.82
2023-06-26T07:21:20.569Z,5.80
2023-06-26T07:23:47.633Z,6.70
2023-06-26T07:26:17.033Z,6.05
2023-06-26T07:28:44.172Z,5.82
2023-06-26T07:31:11.165Z,5.13
2023-06-26T07:33:38.376Z,5.45
2023-06-26T07:36:06.323Z,6.13
2023-06-26T07:38:33.953Z,5.70
2023-06-26T07:41:01.129Z,5.07
2023-06-26T07:43:28.148Z,6.00
2023-06-26T07:45:55.306Z,5.70
2023-06-26T07:48:22.354Z,5.53
2023-06-26T07:50:49.507Z,5.20
2023-06-26T07:53:16.571Z,5.65
2023-06-26T07:55:44.626Z,5.60
2023-06-26T07:58:12.221Z,5.25
2023-06-26T08:00:39.582Z,5.75
2023-06-26T08:03:09.029Z,5.53
2023-06-26T08:05:39.763Z,6.53
2023-06-26T08:08:07.902Z,6.35
2023-06-26T08:10:35.596Z,6.07
2023-06-26T08:13:02.775Z,6.18
2023-06-26T08:15:29.776Z,6.07
2023-06-26T08:17:57.072Z,5.68
2023-06-26T08:20:24.326Z,5.72
2023-06-26T08:22:53.728Z,5.75
2023-06-26T08:25:21.604Z,5.88
2023-06-26T08:27:49.148Z,4.90
2023-06-26T08:30:17.753Z,6.10
2023-06-26T08:32:44.805Z,5.47
2023-06-26T08:35:11.991Z,4.93
2023-06-26T08:37:39.268Z,5.60
2023-06-26T08:40:07.527Z,5.07
2023-06-26T08:42:34.815Z,5.55
2023-06-26T08:45:02.789Z,5.60
2023-06-26T08:47:33.433Z,5.72
2023-06-26T08:50:11.981Z,5.03
2023-06-26T08:52:47.095Z,5.53
2023-06-26T08:55:16.398Z,6.00
2023-06-26T08:57:44.784Z,5.18
2023-06-26T09:00:16.115Z,5.18
2023-06-26T09:02:44.996Z,5.90
2023-06-26T09:05:13.229Z,5.47
2023-06-26T09:07:40.488Z,5.43
2023-06-26T09:10:08.200Z,5.75
2023-06-26T09:12:36.183Z,5.10
2023-06-26T09:15:04.607Z,4.63
2023-06-26T09:17:34.485Z,4.97
2023-06-26T09:20:01.846Z,4.80
2023-06-26T09:22:28.914Z,5.38
2023-06-26T09:24:56.380Z,4.97
2023-06-26T09:27:23.679Z,5.25
2023-06-26T09:29:51.595Z,5.25
2023-06-26T09:32:18.757Z,4.88
2023-06-26T09:34:46.064Z,4.35
2023-06-26T09:37:14.850Z,4.53
2023-06-26T09:39:41.945Z,5.18
2023-06-26T09:42:09.174Z,4.75
2023-06-26T09:44:36.535Z,4.78
2023-06-26T09:47:07.189Z,4.70
2023-06-26T09:49:34.802Z,4.32
2023-06-26T09:52:03.473Z,4.43
2023-06-26T09:54:31.587Z,4.68
2023-06-26T09:57:12.609Z,3.92
2023-06-26T09:59:41.537Z,4.25
2023-06-26T10:02:09.462Z,4.28
2023-06-26T10:04:37.541Z,4.20
2023-06-26T10:07:07.833Z,4.05
2023-06-26T10:09:42.083Z,4.03
2023-06-26T10:12:42.045Z,4.28
2023-06-26T10:15:13.918Z,3.70
2023-06-26T10:17:43.846Z,3.80
2023-06-26T10:20:11.867Z,4.10
2023-06-26T10:22:46.250Z,3.95
2023-06-26T10:25:20.880Z,3.75
2023-06-26T10:27:57.009Z,4.18
2023-06-26T10:30:29.240Z,4.05
2023-06-26T10:32:57.959Z,4.18
2023-06-26T10:35:25.943Z,3.58
2023-06-26T10:37:53.375Z,3.95
2023-06-26T10:40:27.220Z,3.58
2023-06-26T10:43:08.549Z,3.53
2023-06-26T10:45:39.075Z,4.03
2023-06-26T10:48:06.363Z,3.42
2023-06-26T10:50:36.577Z,4.10
2023-06-26T10:53:36.373Z,3.83
2023-06-26T10:56:06.613Z,3.60
2023-06-26T10:58:42.042Z,3.75
2023-06-26T11:01:25.571Z,3.33
2023-06-26T11:04:08.806Z,3.75
2023-06-26T11:06:40.324Z,3.42
2023-06-26T11:09:12.529Z,3.10
2023-06-26T11:12:09.259Z,3.78
2023-06-26T11:14:36.725Z,3.65
2023-06-26T11:17:04.904Z,3.63
2023-06-26T11:19:33.050Z,4.47
2023-06-26T11:22:05.401Z,3.78
2023-06-26T11:24:32.804Z,4.65
2023-06-26T11:27:03.701Z,4.00
2023-06-26T11:29:31.656Z,3.92
2023-06-26T11:32:05.577Z,4.20
2023-06-26T11:34:33.635Z,4.13
2023-06-26T11:37:02.601Z,4.57
2023-06-26T11:39:30.072Z,4.15
2023-06-26T11:41:57.856Z,4.32
2023-06-26T11:44:25.187Z,4.53
2023-06-26T11:46:56.518Z,4.30
2023-06-26T11:49:26.553Z,3.95
2023-06-26T11:51:55.730Z,3.97
2023-06-26T11:54:28.068Z,3.83
2023-06-26T11:57:00.623Z,4.10
2023-06-26T11:59:39.517Z,4.43
2023-06-26T12:02:15.280Z,13.68
2023-06-26T12:04:44.658Z,4.15
2023-06-26T12:07:13.652Z,4.05
2023-06-26T12:09:46.639Z,4.13
2023-06-26T12:12:17.679Z,4.50
2023-06-26T12:14:45.410Z,4.03
2023-06-26T12:17:14.857Z,4.45
2023-06-26T12:19:46.347Z,4.55
2023-06-26T12:22:13.476Z,4.20
2023-06-26T12:24:41.573Z,4.05
2023-06-26T12:27:16.244Z,4.53
2023-06-26T12:29:51.903Z,4.25
2023-06-26T12:32:19.441Z,4.90
2023-06-26T12:34:54.201Z,4.28
2023-06-26T12:37:21.378Z,4.43
2023-06-26T12:39:55.936Z,4.90
2023-06-26T12:42:27.657Z,4.80
2023-06-26T12:44:58.244Z,4.40
2023-06-26T12:47:28.327Z,4.75
2023-06-26T12:49:56.313Z,4.50
2023-06-26T12:52:23.425Z,4.30
2023-06-26T12:54:55.876Z,4.20
2023-06-26T12:57:23.237Z,4.13
2023-06-26T12:59:50.694Z,4.43
2023-06-26T13:02:18.060Z,4.25
2023-06-26T13:04:46.220Z,5.10
2023-06-26T13:07:13.907Z,4.40
2023-06-26T13:09:42.181Z,4.40
2023-06-26T13:12:09.976Z,4.97
2023-06-26T13:14:37.471Z,5.95
2023-06-26T13:17:06.881Z,5.35
2023-06-26T13:19:37.201Z,4.78
2023-06-26T13:22:04.446Z,4.80
2023-06-26T13:24:31.436Z,4.85
2023-06-26T13:26:58.455Z,4.88
2023-06-26T13:29:25.576Z,5.55
2023-06-26T13:31:53.073Z,4.75
2023-06-26T13:34:25.248Z,5.30
2023-06-26T13:36:52.517Z,4.68
2023-06-26T13:39:19.770Z,5.72
2023-06-26T13:41:47.303Z,4.88
2023-06-26T13:44:19.548Z,5.57
2023-06-26T13:46:59.152Z,5.00
2023-06-26T13:49:26.377Z,5.50
2023-06-26T13:51:53.399Z,5.85
2023-06-26T13:54:20.481Z,5.38
2023-06-26T13:56:47.603Z,5.28
2023-06-26T13:59:14.640Z,5.53
2023-06-26T14:01:44.023Z,5.20
2023-06-26T14:04:11.127Z,4.97
2023-06-26T14:06:38.111Z,5.20
2023-06-26T14:09:05.384Z,5.65
2023-06-26T14:11:33.789Z,5.13
2023-06-26T14:14:01.216Z,5.03
2023-06-26T14:16:30.117Z,5.05
2023-06-26T14:18:57.614Z,5.82
2023-06-26T14:21:25.002Z,6.03
2023-06-26T14:23:52.169Z,5.35
2023-06-26T14:26:19.230Z,5.63
2023-06-26T14:28:46.409Z,5.60
2023-06-26T14:31:13.685Z,5.55
2023-06-26T14:33:40.982Z,6.43
2023-06-26T14:36:08.128Z,5.75
2023-06-26T14:38:35.290Z,5.57
2023-06-26T14:41:02.325Z,5.68
2023-06-26T14:43:30.137Z,6.28
2023-06-26T14:45:57.782Z,6.20
2023-06-26T14:48:25.319Z,5.88
2023-06-26T14:50:52.364Z,6.20
2023-06-26T14:53:19.457Z,5.43
2023-06-26T14:55:46.470Z,5.60
2023-06-26T14:58:13.761Z,6.53
2023-06-26T15:00:41.016Z,6.50
2023-06-26T15:03:08.332Z,6.57
2023-06-26T15:05:36.432Z,6.13
2023-06-26T15:08:03.527Z,6.07
2023-06-26T15:10:32.550Z,5.13
2023-06-26T15:13:01.124Z,6.13
2023-06-26T15:15:28.252Z,5.13
2023-06-26T15:17:55.335Z,6.60
2023-06-26T15:20:22.505Z,6.00
2023-06-26T15:22:49.537Z,5.93
2023-06-26T15:25:16.646Z,5.18
2023-06-26T15:27:43.812Z,5.38
2023-06-26T15:30:11.282Z,5.93
2023-06-26T15:32:38.348Z,5.40
2023-06-26T15:35:05.928Z,5.38
2023-06-26T15:37:33.078Z,5.35
2023-06-26T15:40:00.063Z,5.53
2023-06-26T15:42:29.813Z,4.47
2023-06-26T15:44:56.865Z,5.32
2023-06-26T15:47:24.029Z,4.63
2023-06-26T15:49:51.049Z,4.95
2023-06-26T15:52:18.103Z,4.43
2023-06-26T15:54:45.202Z,4.57
2023-06-26T15:57:12.277Z,4.13
2023-06-26T15:59:39.242Z,4.13
2023-06-26T16:02:06.853Z,4.25
2023-06-26T16:04:34.060Z,3.80
2023-06-26T16:07:01.346Z,4.05
2023-06-26T16:09:28.385Z,4.57
2023-06-26T16:11:55.564Z,3.50
2023-06-26T16:14:22.622Z,3.63
2023-06-26T16:16:49.706Z,3.20
2023-06-26T16:19:16.762Z,3.60
2023-06-26T16:21:43.819Z,3.78
2023-06-26T16:24:10.858Z,3.20
2023-06-26T16:26:37.845Z,3.72
2023-06-26T16:29:05.066Z,2.95
2023-06-26T16:31:32.152Z,3.17
2023-06-26T16:34:01.724Z,3.58
2023-06-26T16:36:28.779Z,3.38
2023-06-26T16:38:56.150Z,3.35
2023-06-26T16:41:25.219Z,3.20
2023-06-26T16:43:52.321Z,3.63
2023-06-26T16:46:19.390Z,3.47
2023-06-26T16:48:46.524Z,3.47
2023-06-26T16:51:13.608Z,3.38
2023-06-26T16:53:40.717Z,3.35
2023-06-26T16:56:07.683Z,3.65
2023-06-26T16:58:34.719Z,3.78
2023-06-26T17:01:01.695Z,3.63
2023-06-26T17:03:29.898Z,4.18
2023-06-26T17:05:56.946Z,5.30
2023-06-26T17:08:24.026Z,5.05
2023-06-26T17:10:51.242Z,5.38
2023-06-26T17:13:18.297Z,5.20
2023-06-26T17:15:45.298Z,5.32
2023-06-26T17:18:12.409Z,6.53
2023-06-26T17:20:39.719Z,6.22
2023-06-26T17:23:07.029Z,6.63
2023-06-26T17:25:35.142Z,6.43
2023-06-26T17:28:02.172Z,6.53
2023-06-26T17:30:29.543Z,7.32
2023-06-26T17:32:56.935Z,6.63
2023-06-26T17:35:24.166Z,5.75
2023-06-26T17:37:51.240Z,5.90
2023-06-26T17:40:18.615Z,5.22
2023-06-26T17:42:45.671Z,5.25
2023-06-26T17:45:13.031Z,5.38
2023-06-26T17:47:41.734Z,5.28
2023-06-26T17:50:10.261Z,4.80
2023-06-26T17:52:37.324Z,5.47
2023-06-26T17:55:05.280Z,4.38
2023-06-26T17:57:32.357Z,4.93
2023-06-26T17:59:59.759Z,4.40
2023-06-26T18:02:27.041Z,3.97
2023-06-26T18:04:54.672Z,5.20
2023-06-26T18:07:23.000Z,4.20
2023-06-26T18:09:50.156Z,4.50
2023-06-26T18:12:17.222Z,3.78
2023-06-26T18:14:45.080Z,3.97
2023-06-26T18:17:12.087Z,3.40
2023-06-26T18:19:39.124Z,3.42
2023-06-26T18:22:06.289Z,4.18
2023-06-26T18:24:33.480Z,3.22
2023-06-26T18:27:00.635Z,3.53
2023-06-26T18:29:27.685Z,2.85
2023-06-26T18:31:54.999Z,2.53
2023-06-26T18:34:22.952Z,2.13
2023-06-26T18:36:50.119Z,2.47
2023-06-26T18:39:17.132Z,1.98
2023-06-26T18:41:44.304Z,1.98
2023-06-26T18:44:11.305Z,2.13
2023-06-26T18:46:39.089Z,2.10
2023-06-26T18:49:06.771Z,1.90
2023-06-26T18:51:34.459Z,1.73
2023-06-26T18:54:02.647Z,1.75
2023-06-26T18:56:34.260Z,2.38
2023-06-26T18:59:01.386Z,2.08
2023-06-26T19:01:28.655Z,1.77
2023-06-26T19:03:55.815Z,1.70
2023-06-26T19:06:22.883Z,1.65
2023-06-26T19:08:49.847Z,1.50
2023-06-26T19:11:18.428Z,2.38
2023-06-26T19:13:48.582Z,1.60
2023-06-26T19:16:15.733Z,1.88
2023-06-26T19:18:42.970Z,1.70
2023-06-26T19:21:10.146Z,1.80
2023-06-26T19:23:38.125Z,2.83
2023-06-26T19:26:05.432Z,1.85
2023-06-26T19:28:32.497Z,1.67
2023-06-26T19:30:59.568Z,1.80
2023-06-26T19:33:26.600Z,1.50
2023-06-26T19:35:54.305Z,1.70
2023-06-26T19:38:21.427Z,1.63
2023-06-26T19:40:48.429Z,1.63
2023-06-26T19:43:15.611Z,1.63
2023-06-26T19:45:43.021Z,1.45
2023-06-26T19:48:12.190Z,2.10
2023-06-26T19:50:39.277Z,1.75
2023-06-26T19:53:06.373Z,1.77
2023-06-26T19:55:33.461Z,1.65
2023-06-26T19:58:00.812Z,1.83
2023-06-26T20:00:29.054Z,1.58
2023-06-26T20:02:56.748Z,1.83
2023-06-26T20:05:24.045Z,1.90
2023-06-26T20:07:51.217Z,1.67
2023-06-26T20:10:18.705Z,2.08
2023-06-26T20:12:45.728Z,1.75
2023-06-26T20:15:12.793Z,1.80
2023-06-26T20:17:39.855Z,1.80
2023-06-26T20:20:07.539Z,1.80
2023-06-26T20:22:34.638Z,1.65
2023-06-26T20:25:01.750Z,2.20
2023-06-26T20:27:28.880Z,2.53
2023-06-26T20:29:56.065Z,2.10
2023-06-26T20:32:23.794Z,2.28
2023-06-26T20:34:51.860Z,2.50
2023-06-26T20:37:18.960Z,1.90
2023-06-26T20:39:46.525Z,2.40
2023-06-26T20:42:14.419Z,2.42
2023-06-26T20:44:41.821Z,2.00
2023-06-26T20:47:13.976Z,2.38
2023-06-26T20:49:41.675Z,2.88
2023-06-26T20:52:11.790Z,2.03
2023-06-26T20:54:39.981Z,2.45
2023-06-26T20:57:09.897Z,2.05
2023-06-26T20:59:39.663Z,2.30
2023-06-26T21:02:07.316Z,2.38
2023-06-26T21:04:37.670Z,2.40
2023-06-26T21:07:07.120Z,2.00
2023-06-26T21:09:34.368Z,1.90
2023-06-26T21:12:04.713Z,1.55
2023-06-26T21:14:32.407Z,2.20
2023-06-26T21:16:59.546Z,1.83
2023-06-26T21:19:26.674Z,2.08
2023-06-26T21:21:53.865Z,2.10
2023-06-26T21:24:20.945Z,2.97
2023-06-26T21:26:48.078Z,1.92
2023-06-26T21:29:15.047Z,2.00
2023-06-26T21:31:42.168Z,2.10
2023-06-26T21:34:09.249Z,2.53
2023-06-26T21:36:36.363Z,2.13
2023-06-26T21:39:03.760Z,1.65
2023-06-26T21:41:30.793Z,2.25
2023-06-26T21:43:57.864Z,2.05
2023-06-26T21:46:25.009Z,2.15
2023-06-26T21:48:52.092Z,1.38
2023-06-26T21:51:19.763Z,1.92
2023-06-26T21:53:47.226Z,1.90
2023-06-26T21:56:14.313Z,1.90
2023-06-26T21:58:41.493Z,1.45
2023-06-26T22:01:10.745Z,1.90
2023-06-26T22:03:38.320Z,1.75
2023-06-26T22:06:05.376Z,1.83
2023-06-26T22:08:32.518Z,1.65
2023-06-26T22:10:59.631Z,1.83
2023-06-26T22:13:28.028Z,2.10
2023-06-26T22:15:55.152Z,1.55
2023-06-26T22:18:22.210Z,2.55
2023-06-26T22:20:50.422Z,2.15
2023-06-26T22:23:17.580Z,1.77
2023-06-26T22:25:45.465Z,2.28
2023-06-26T22:28:12.596Z,1.95
2023-06-26T22:30:39.616Z,1.90
2023-06-26T22:33:06.807Z,1.73
2023-06-26T22:35:33.844Z,1.60
2023-06-26T22:38:00.940Z,1.70
2023-06-26T22:40:28.028Z,1.70
2023-06-26T22:42:55.111Z,1.80
2023-06-26T22:45:22.169Z,2.17
2023-06-26T22:47:49.347Z,1.33
2023-06-26T22:50:16.711Z,1.55
2023-06-26T22:52:44.431Z,2.13
2023-06-26T22:55:11.767Z,2.35
2023-06-26T22:57:39.037Z,1.52
2023-06-26T23:00:10.783Z,1.77
2023-06-26T23:02:39.965Z,1.85
2023-06-26T23:05:08.741Z,1.58
2023-06-26T23:07:36.267Z,1.85
2023-06-26T23:10:08.732Z,1.48
2023-06-26T23:12:35.980Z,1.63
2023-06-26T23:15:04.626Z,1.67
2023-06-26T23:17:31.682Z,1.90
2023-06-26T23:20:00.167Z,1.35
2023-06-26T23:22:27.422Z,1.48
2023-06-26T23:24:58.958Z,1.38
2023-06-26T23:27:26.203Z,1.55
2023-06-26T23:29:55.009Z,1.45
2023-06-26T23:32:23.185Z,1.33
2023-06-26T23:34:50.975Z,2.45
2023-06-26T23:37:26.753Z,1.50
2023-06-26T23:39:54.265Z,2.17
2023-06-26T23:42:21.339Z,1.83
2023-06-26T23:44:51.511Z,1.60
2023-06-26T23:47:19.114Z,1.42
2023-06-26T23:49:46.460Z,1.38
2023-06-26T23:52:13.621Z,1.65
2023-06-26T23:54:41.240Z,1.30
2023-06-26T23:57:08.414Z,1.40
2023-06-26T23:59:35.392Z,2.00
